TAF KSLN
KSLN 072324Z 0800/0824 20008KT P6SM SCT200 FM080100 VRB04KT P6SM FEW200 FM082100 17012KT P6SM FEW250=
METAR KSLN
WC KSLN
WS KSLN
WV KSLN